createdAt,value
2023-10-29T00:00:30.374Z,1.88
2023-10-29T00:02:35.555Z,2.08
2023-10-29T00:04:40.735Z,1.80
2023-10-29T00:06:49.176Z,1.80
2023-10-29T00:08:51.926Z,2.08
2023-10-29T00:10:57.062Z,2.00
2023-10-29T00:12:59.425Z,1.90
2023-10-29T00:15:04.611Z,1.95
2023-10-29T00:17:07.047Z,2.13
2023-10-29T00:19:12.016Z,1.77
2023-10-29T00:21:16.990Z,1.83
2023-10-29T00:23:24.632Z,1.63
2023-10-29T00:25:29.623Z,1.02
2023-10-29T00:27:32.048Z,1.40
2023-10-29T00:29:38.209Z,1.10
2023-10-29T00:31:43.372Z,1.33
2023-10-29T00:33:48.371Z,1.25
2023-10-29T00:35:53.360Z,1.25
2023-10-29T00:37:58.382Z,1.00
2023-10-29T00:40:06.209Z,1.30
2023-10-29T00:42:11.304Z,1.40
2023-10-29T00:44:16.367Z,1.20
2023-10-29T00:46:21.734Z,1.35
2023-10-29T00:48:27.054Z,1.10
2023-10-29T00:50:32.123Z,1.50
2023-10-29T00:52:38.878Z,1.27
2023-10-29T00:54:44.139Z,1.00
2023-10-29T00:56:54.054Z,1.00
2023-10-29T00:58:59.310Z,1.20
2023-10-29T01:01:04.734Z,1.20
2023-10-29T01:03:09.927Z,1.23
2023-10-29T01:05:15.253Z,1.50
2023-10-29T01:07:21.034Z,1.30
2023-10-29T01:09:26.222Z,1.38
2023-10-29T01:11:31.255Z,1.20
2023-10-29T01:13:40.255Z,1.48
2023-10-29T01:15:45.228Z,1.55
2023-10-29T01:17:50.460Z,2.10
2023-10-29T01:19:56.151Z,2.88
2023-10-29T01:22:01.306Z,2.25
2023-10-29T01:24:07.335Z,2.40
2023-10-29T01:26:12.819Z,3.10
2023-10-29T01:28:19.169Z,2.55
2023-10-29T01:30:27.061Z,1.90
2023-10-29T01:32:32.327Z,3.08
2023-10-29T01:34:37.573Z,1.95
2023-10-29T01:36:42.577Z,2.28
2023-10-29T01:38:47.698Z,2.28
2023-10-29T01:40:50.432Z,2.15
2023-10-29T01:42:55.480Z,1.67
2023-10-29T01:45:00.570Z,1.30
2023-10-29T01:47:08.864Z,1.90
2023-10-29T01:49:11.264Z,1.55
2023-10-29T01:51:16.346Z,1.70
2023-10-29T01:53:22.488Z,1.63
2023-10-29T01:55:27.704Z,1.80
2023-10-29T01:57:33.641Z,1.63
2023-10-29T01:59:38.899Z,1.73
2023-10-29T02:01:44.077Z,1.77
2023-10-29T02:03:52.061Z,1.90
2023-10-29T02:05:57.211Z,1.50
2023-10-29T02:08:02.446Z,1.80
2023-10-29T02:10:08.274Z,1.60
2023-10-29T02:12:13.509Z,1.48
2023-10-29T02:14:18.683Z,1.80
2023-10-29T02:16:24.589Z,1.98
2023-10-29T02:18:29.672Z,1.70
2023-10-29T02:20:37.501Z,1.73
2023-10-29T02:22:45.321Z,1.95
2023-10-29T02:24:50.529Z,1.33
2023-10-29T02:26:55.853Z,1.55
2023-10-29T02:29:01.188Z,1.40
2023-10-29T02:31:06.787Z,1.90
2023-10-29T02:33:12.271Z,1.65
2023-10-29T02:35:15.657Z,1.52
2023-10-29T02:37:21.401Z,1.20
2023-10-29T02:39:29.007Z,1.48
2023-10-29T02:41:35.209Z,1.33
2023-10-29T02:43:42.860Z,1.80
2023-10-29T02:45:48.021Z,1.48
2023-10-29T02:47:50.808Z,1.55
2023-10-29T02:49:55.852Z,1.20
2023-10-29T02:52:00.879Z,1.48
2023-10-29T02:54:06.708Z,1.80
2023-10-29T02:56:14.324Z,1.58
2023-10-29T02:58:19.378Z,1.40
2023-10-29T03:00:24.509Z,1.48
2023-10-29T03:02:27.076Z,1.50
2023-10-29T03:04:32.153Z,1.52
2023-10-29T03:06:37.996Z,1.77
2023-10-29T03:08:40.406Z,1.52
2023-10-29T03:10:45.848Z,1.70
2023-10-29T03:12:53.526Z,1.90
2023-10-29T03:14:58.595Z,1.50
2023-10-29T03:17:03.636Z,1.70
2023-10-29T03:19:08.770Z,1.50
2023-10-29T03:21:13.680Z,1.70
2023-10-29T03:23:16.529Z,1.90
2023-10-29T03:25:21.669Z,1.42
2023-10-29T03:27:27.647Z,1.50
2023-10-29T03:29:36.593Z,1.73
2023-10-29T03:31:41.812Z,1.50
2023-10-29T03:33:48.802Z,1.55
2023-10-29T03:35:54.034Z,1.70
2023-10-29T03:37:59.775Z,1.58
2023-10-29T03:40:04.812Z,2.00
2023-10-29T03:42:10.326Z,1.40
2023-10-29T03:44:15.433Z,1.50
2023-10-29T03:46:23.074Z,1.75
2023-10-29T03:48:28.372Z,1.60
2023-10-29T03:50:33.536Z,1.70
2023-10-29T03:52:38.753Z,1.67
2023-10-29T03:54:43.941Z,1.75
2023-10-29T03:56:49.046Z,1.58
2023-10-29T03:58:54.083Z,1.52
2023-10-29T04:00:59.287Z,1.38
2023-10-29T04:03:07.212Z,1.52
2023-10-29T04:05:13.913Z,1.63
2023-10-29T04:07:16.474Z,1.67
2023-10-29T04:09:21.497Z,1.80
2023-10-29T04:11:26.486Z,1.55
2023-10-29T04:13:32.361Z,1.80
2023-10-29T04:15:37.362Z,1.63
2023-10-29T04:17:42.604Z,1.40
2023-10-29T04:19:50.273Z,1.50
2023-10-29T04:21:55.274Z,1.63
2023-10-29T04:24:00.253Z,1.50
2023-10-29T04:26:02.692Z,1.50
2023-10-29T04:28:08.017Z,1.67
2023-10-29T04:30:14.108Z,1.67
2023-10-29T04:32:19.229Z,1.50
2023-10-29T04:34:24.294Z,1.55
2023-10-29T04:36:31.861Z,1.75
2023-10-29T04:38:38.366Z,1.70
2023-10-29T04:40:43.594Z,2.03
2023-10-29T04:42:48.703Z,1.60
2023-10-29T04:44:53.815Z,1.65
2023-10-29T04:46:58.855Z,1.85
2023-10-29T04:49:03.886Z,1.77
2023-10-29T04:51:11.054Z,1.80
2023-10-29T04:53:18.972Z,1.67
2023-10-29T04:55:23.980Z,1.55
2023-10-29T04:57:26.374Z,1.73
2023-10-29T04:59:31.467Z,1.70
2023-10-29T05:01:36.443Z,1.90
2023-10-29T05:03:41.727Z,1.58
2023-10-29T05:05:48.810Z,2.00
2023-10-29T05:07:55.429Z,1.80
2023-10-29T05:10:03.324Z,1.92
2023-10-29T05:12:09.664Z,1.83
2023-10-29T05:14:14.593Z,1.88
2023-10-29T05:16:21.799Z,1.90
2023-10-29T05:18:27.108Z,2.05
2023-10-29T05:20:32.443Z,1.48
2023-10-29T05:22:37.497Z,1.73
2023-10-29T05:24:42.534Z,1.65
2023-10-29T05:26:50.068Z,1.88
2023-10-29T05:28:55.082Z,1.95
2023-10-29T05:31:00.317Z,1.90
2023-10-29T05:33:05.460Z,1.60
2023-10-29T05:35:11.945Z,2.10
2023-10-29T05:37:16.969Z,2.45
2023-10-29T05:39:21.956Z,1.80
2023-10-29T05:41:27.311Z,1.83
2023-10-29T05:43:35.860Z,2.17
2023-10-29T05:45:41.117Z,1.45
2023-10-29T05:47:46.250Z,1.80
2023-10-29T05:49:51.278Z,1.77
2023-10-29T05:51:56.231Z,1.85
2023-10-29T05:54:01.284Z,2.20
2023-10-29T05:56:07.457Z,2.17
2023-10-29T05:58:12.691Z,2.20
2023-10-29T06:00:20.840Z,2.42
2023-10-29T06:02:23.254Z,2.15
2023-10-29T06:04:28.588Z,2.95
2023-10-29T06:06:33.771Z,2.60
2023-10-29T06:08:38.829Z,2.55
2023-10-29T06:10:44.847Z,2.80
2023-10-29T06:12:49.821Z,2.30
2023-10-29T06:14:54.818Z,3.00
2023-10-29T06:17:15.442Z,2.63
2023-10-29T06:19:20.850Z,2.33
2023-10-29T06:21:25.883Z,2.47
2023-10-29T06:23:31.114Z,2.00
2023-10-29T06:25:36.039Z,2.30
2023-10-29T06:27:41.134Z,2.20
2023-10-29T06:29:46.163Z,2.10
2023-10-29T06:31:51.343Z,2.40
2023-10-29T06:33:59.020Z,3.45
2023-10-29T06:36:04.029Z,2.38
2023-10-29T06:38:08.989Z,2.95
2023-10-29T06:40:14.710Z,2.38
2023-10-29T06:42:19.895Z,2.25
2023-10-29T06:44:24.996Z,2.50
2023-10-29T06:46:30.119Z,2.40
2023-10-29T06:48:36.969Z,2.33
2023-10-29T06:50:46.090Z,2.10
2023-10-29T06:52:51.325Z,2.28
2023-10-29T06:54:56.294Z,2.55
2023-10-29T06:57:03.113Z,2.35
2023-10-29T06:59:10.062Z,2.40
2023-10-29T07:01:16.584Z,2.10
2023-10-29T07:03:21.649Z,2.13
2023-10-29T07:05:27.010Z,2.60
2023-10-29T07:07:36.205Z,2.25
2023-10-29T07:09:41.250Z,2.35
2023-10-29T07:11:46.397Z,1.88
2023-10-29T07:13:53.890Z,2.05
2023-10-29T07:15:56.823Z,1.70
2023-10-29T07:20:05.389Z,1.50
2023-10-29T07:22:10.400Z,1.38
2023-10-29T07:24:17.875Z,1.67
2023-10-29T07:26:22.857Z,1.42
2023-10-29T07:28:29.764Z,1.73
2023-10-29T07:30:34.681Z,1.63
2023-10-29T07:32:36.995Z,1.63
2023-10-29T07:34:41.894Z,1.65
2023-10-29T07:36:46.987Z,1.70
2023-10-29T07:38:49.515Z,1.48
2023-10-29T07:40:57.047Z,1.40
2023-10-29T07:43:01.961Z,1.33
2023-10-29T07:45:07.276Z,1.60
2023-10-29T07:47:12.767Z,1.27
2023-10-29T07:49:17.719Z,1.80
2023-10-29T07:51:23.010Z,1.90
2023-10-29T07:53:28.339Z,1.95
2023-10-29T07:55:33.240Z,1.80
2023-10-29T07:57:41.178Z,1.83
2023-10-29T07:59:46.219Z,1.70
2023-10-29T08:01:51.137Z,1.77
2023-10-29T08:03:57.424Z,2.30
2023-10-29T08:06:02.401Z,2.15
2023-10-29T08:08:08.800Z,1.70
2023-10-29T08:10:15.179Z,1.70
2023-10-29T08:12:20.172Z,1.70
2023-10-29T08:14:25.134Z,2.13
2023-10-29T08:16:30.080Z,1.50
2023-10-29T08:18:35.095Z,1.75
2023-10-29T08:20:40.096Z,1.70
2023-10-29T08:22:46.269Z,1.42
2023-10-29T08:24:52.037Z,1.50
2023-10-29T08:26:56.995Z,1.55
2023-10-29T08:29:02.056Z,1.98
2023-10-29T08:31:09.716Z,2.08
2023-10-29T08:33:14.961Z,1.85
2023-10-29T08:35:19.928Z,1.85
2023-10-29T08:37:22.378Z,2.33
2023-10-29T08:39:28.857Z,2.85
2023-10-29T08:41:33.722Z,2.28
2023-10-29T08:43:38.591Z,2.42
2023-10-29T08:45:43.618Z,1.92
2023-10-29T08:47:51.326Z,1.80
2023-10-29T08:49:56.767Z,1.80
2023-10-29T08:52:01.644Z,2.45
2023-10-29T08:54:07.390Z,1.60
2023-10-29T08:56:12.595Z,1.40
2023-10-29T08:58:17.432Z,1.40
2023-10-29T09:00:22.328Z,1.83
2023-10-29T09:02:27.424Z,1.48
2023-10-29T09:04:39.665Z,1.63
2023-10-29T09:06:45.090Z,1.48
2023-10-29T09:08:47.450Z,1.52
2023-10-29T09:10:52.543Z,1.40
2023-10-29T09:12:57.749Z,1.40
2023-10-29T09:15:03.320Z,1.63
2023-10-29T09:17:08.201Z,1.50
2023-10-29T09:19:13.159Z,1.67
2023-10-29T09:21:20.861Z,1.55
2023-10-29T09:23:26.116Z,1.70
2023-10-29T09:25:28.485Z,1.70
2023-10-29T09:27:33.471Z,1.65
2023-10-29T09:29:41.494Z,1.50
2023-10-29T09:31:46.545Z,1.63
2023-10-29T09:33:51.386Z,1.80
2023-10-29T09:35:56.310Z,1.50
2023-10-29T09:38:03.730Z,1.35
2023-10-29T09:40:10.645Z,1.55
2023-10-29T09:42:20.751Z,2.20
2023-10-29T09:44:27.252Z,1.40
2023-10-29T09:46:34.931Z,1.52
2023-10-29T09:48:40.874Z,1.35
2023-10-29T09:50:44.713Z,1.33
2023-10-29T09:52:54.332Z,1.60
2023-10-29T09:55:04.283Z,2.13
2023-10-29T09:57:10.058Z,1.40
2023-10-29T09:59:14.912Z,1.80
2023-10-29T10:01:19.799Z,1.55
2023-10-29T10:03:29.055Z,1.70
2023-10-29T10:05:31.593Z,1.40
2023-10-29T10:07:36.781Z,1.58
2023-10-29T10:09:55.055Z,1.90
2023-10-29T10:12:17.343Z,1.70
2023-10-29T10:14:31.364Z,1.30
2023-10-29T10:16:36.202Z,1.48
2023-10-29T10:18:55.400Z,1.33
2023-10-29T10:21:01.715Z,1.08
2023-10-29T10:23:09.332Z,1.40
2023-10-29T10:25:24.911Z,1.08
2023-10-29T10:27:32.547Z,1.20
2023-10-29T10:29:37.601Z,1.13
2023-10-29T10:31:40.043Z,1.30
2023-10-29T10:33:45.128Z,1.15
2023-10-29T10:35:52.613Z,1.35
2023-10-29T10:37:58.304Z,1.15
2023-10-29T10:40:03.171Z,0.98
2023-10-29T10:42:08.554Z,1.13
2023-10-29T10:44:14.945Z,1.25
2023-10-29T10:46:22.762Z,1.27
2023-10-29T10:48:28.584Z,1.00
2023-10-29T10:50:35.883Z,1.20
2023-10-29T10:52:41.325Z,1.00
2023-10-29T10:54:47.933Z,0.98
2023-10-29T10:56:51.458Z,1.30
2023-10-29T10:58:57.063Z,1.10
2023-10-29T11:01:07.748Z,1.10
2023-10-29T11:03:25.513Z,1.10
2023-10-29T11:05:37.470Z,0.90
2023-10-29T11:07:44.357Z,1.20
2023-10-29T11:09:50.419Z,1.00
2023-10-29T11:11:57.885Z,1.25
2023-10-29T11:14:16.191Z,1.13
2023-10-29T11:16:27.887Z,0.93
2023-10-29T11:18:34.478Z,0.80
2023-10-29T11:20:57.699Z,1.23
2023-10-29T11:23:10.754Z,1.00
2023-10-29T11:25:33.042Z,1.52
2023-10-29T11:27:36.818Z,1.23
2023-10-29T11:29:45.516Z,0.98
2023-10-29T11:32:18.392Z,1.05
2023-10-29T11:34:38.693Z,0.98
2023-10-29T11:36:44.424Z,1.13
2023-10-29T11:38:47.225Z,1.52
2023-10-29T11:40:52.484Z,1.10
2023-10-29T11:42:58.535Z,1.20
2023-10-29T11:45:31.360Z,1.20
2023-10-29T11:48:18.524Z,1.40
2023-10-29T11:50:25.601Z,1.50
2023-10-29T11:52:43.886Z,1.30
2023-10-29T11:54:49.326Z,1.42
2023-10-29T11:56:55.775Z,1.50
2023-10-29T11:59:08.276Z,1.45
2023-10-29T12:01:13.297Z,1.25
2023-10-29T12:03:25.071Z,1.38
2023-10-29T12:05:29.962Z,1.75
2023-10-29T12:07:34.856Z,2.00
2023-10-29T12:09:39.737Z,1.30
2023-10-29T12:11:44.942Z,1.30
2023-10-29T12:13:50.101Z,1.00
2023-10-29T12:16:01.719Z,1.50
2023-10-29T12:18:07.114Z,1.20
2023-10-29T12:20:24.885Z,1.75
2023-10-29T12:22:32.205Z,1.30
2023-10-29T12:24:34.648Z,1.30
2023-10-29T12:26:40.241Z,1.15
2023-10-29T12:28:45.581Z,1.20
2023-10-29T12:30:52.194Z,1.25
2023-10-29T12:33:21.188Z,1.40
2023-10-29T12:35:40.345Z,1.30
2023-10-29T12:37:45.227Z,1.42
2023-10-29T12:39:48.169Z,1.30
2023-10-29T12:41:56.383Z,1.27
2023-10-29T12:44:01.137Z,1.35
2023-10-29T12:46:03.916Z,1.45
2023-10-29T12:48:16.211Z,1.10
2023-10-29T12:50:21.305Z,1.17
2023-10-29T12:52:28.881Z,1.35
2023-10-29T12:54:35.138Z,1.27
2023-10-29T12:56:53.065Z,1.10
2023-10-29T12:58:57.991Z,1.15
2023-10-29T13:01:03.808Z,1.20
2023-10-29T13:03:06.225Z,1.35
2023-10-29T13:05:12.391Z,1.08
2023-10-29T13:07:18.662Z,1.02
2023-10-29T13:09:26.748Z,0.93
2023-10-29T13:11:31.634Z,1.00
2023-10-29T13:13:37.262Z,1.17
2023-10-29T13:15:43.181Z,1.10
2023-10-29T13:17:48.268Z,1.20
2023-10-29T13:19:53.224Z,1.58
2023-10-29T13:21:58.023Z,1.02
2023-10-29T13:24:03.034Z,1.40
2023-10-29T13:26:10.597Z,1.30
2023-10-29T13:28:12.786Z,1.02
2023-10-29T13:30:17.894Z,1.25
2023-10-29T13:32:23.116Z,1.33
2023-10-29T13:34:28.062Z,1.08
2023-10-29T13:36:32.995Z,0.85
2023-10-29T13:38:39.534Z,1.33
2023-10-29T13:40:44.762Z,1.15
2023-10-29T13:42:52.184Z,1.23
2023-10-29T13:44:57.036Z,1.35
2023-10-29T13:47:02.757Z,1.52
2023-10-29T13:49:07.778Z,1.25
2023-10-29T13:51:12.763Z,1.20
2023-10-29T13:53:17.675Z,1.20
2023-10-29T13:55:24.687Z,1.30
2023-10-29T13:57:29.972Z,1.45
2023-10-29T13:59:39.746Z,1.73
2023-10-29T14:01:44.824Z,1.42
2023-10-29T14:03:47.348Z,1.30
2023-10-29T14:05:52.329Z,1.90
2023-10-29T14:08:00.659Z,1.58
2023-10-29T14:10:05.523Z,1.67
2023-10-29T14:12:11.250Z,1.60
2023-10-29T14:14:13.577Z,1.45
2023-10-29T14:16:22.012Z,1.90
2023-10-29T14:18:26.949Z,2.03
2023-10-29T14:20:31.793Z,2.10
2023-10-29T14:22:36.659Z,1.80
2023-10-29T14:24:41.917Z,2.08
2023-10-29T14:26:47.052Z,1.63
2023-10-29T14:28:49.514Z,1.55
2023-10-29T14:30:54.652Z,1.60
2023-10-29T14:33:02.397Z,1.60
2023-10-29T14:35:06.660Z,1.80
2023-10-29T14:37:11.454Z,1.60
2023-10-29T14:39:17.203Z,1.25
2023-10-29T14:41:19.574Z,1.52
2023-10-29T14:43:25.423Z,1.55
2023-10-29T14:45:28.510Z,1.80
2023-10-29T14:47:33.345Z,1.50
2023-10-29T14:49:40.917Z,1.60
2023-10-29T14:51:43.143Z,1.42
2023-10-29T14:53:48.036Z,1.50
2023-10-29T14:55:53.047Z,1.50
2023-10-29T14:57:57.858Z,1.38
2023-10-29T15:00:03.055Z,1.55
2023-10-29T15:02:08.207Z,1.98
2023-10-29T15:04:13.174Z,1.88
2023-10-29T15:06:19.615Z,1.83
2023-10-29T15:08:25.471Z,6.63
2023-10-29T15:10:30.269Z,6.47
2023-10-29T15:12:36.446Z,7.25
2023-10-29T15:14:41.955Z,6.00
2023-10-29T15:16:46.983Z,3.78
2023-10-29T15:18:51.936Z,2.95
2023-10-29T15:21:01.060Z,2.67
2023-10-29T15:23:08.694Z,2.00
2023-10-29T15:25:15.241Z,1.52
2023-10-29T15:27:20.462Z,1.35
2023-10-29T15:29:25.807Z,1.45
2023-10-29T15:31:30.637Z,1.50
2023-10-29T15:33:35.495Z,1.40
2023-10-29T15:35:40.653Z,2.05
2023-10-29T15:37:44.268Z,1.80
2023-10-29T15:39:51.660Z,1.70
2023-10-29T15:41:56.542Z,2.22
2023-10-29T15:44:01.444Z,1.52
2023-10-29T15:46:09.845Z,1.77
2023-10-29T15:48:15.323Z,1.80
2023-10-29T15:50:20.250Z,1.60
2023-10-29T15:52:25.153Z,1.83
2023-10-29T15:54:30.012Z,1.90
2023-10-29T15:56:38.148Z,1.65
2023-10-29T15:58:42.982Z,1.60
2023-10-29T16:00:45.716Z,1.65
2023-10-29T16:04:55.562Z,1.85
2023-10-29T16:07:01.175Z,1.80
2023-10-29T16:09:06.338Z,1.60
2023-10-29T16:11:13.801Z,1.50
2023-10-29T16:13:21.175Z,2.03
2023-10-29T16:15:26.647Z,1.80
2023-10-29T16:17:32.937Z,2.00
2023-10-29T16:19:39.258Z,1.92
2023-10-29T16:21:44.855Z,1.90
2023-10-29T16:23:49.950Z,1.90
2023-10-29T16:25:54.845Z,2.20
2023-10-29T16:27:59.679Z,2.28
2023-10-29T16:30:08.972Z,2.35
2023-10-29T16:32:13.838Z,2.58
2023-10-29T16:34:18.747Z,3.15
2023-10-29T16:36:23.940Z,3.40
2023-10-29T16:38:30.468Z,2.65
2023-10-29T16:40:35.375Z,3.60
2023-10-29T16:42:40.172Z,2.75
2023-10-29T16:44:45.460Z,3.03
2023-10-29T16:46:53.246Z,2.70
2023-10-29T16:48:59.775Z,2.00
2023-10-29T16:51:09.865Z,2.42
2023-10-29T16:53:14.784Z,3.00
2023-10-29T16:55:19.531Z,3.08
2023-10-29T16:57:24.482Z,2.72
2023-10-29T16:59:29.304Z,2.28
2023-10-29T17:01:31.776Z,2.35
2023-10-29T17:03:39.321Z,3.08
2023-10-29T17:05:44.252Z,2.40
2023-10-29T17:07:49.021Z,2.72
2023-10-29T17:09:53.832Z,1.83
2023-10-29T17:11:58.841Z,1.73
2023-10-29T17:14:04.998Z,2.03
2023-10-29T17:16:10.251Z,1.70
2023-10-29T17:18:16.531Z,2.25
2023-10-29T17:20:25.167Z,1.90
2023-10-29T17:22:30.042Z,2.10
2023-10-29T17:24:34.953Z,1.92
2023-10-29T17:26:37.332Z,2.00
2023-10-29T17:28:42.128Z,1.95
2023-10-29T17:30:44.581Z,1.90
2023-10-29T17:32:50.689Z,1.83
2023-10-29T17:34:55.636Z,2.08
2023-10-29T17:37:05.208Z,1.85
2023-10-29T17:39:16.188Z,1.98
2023-10-29T17:41:23.077Z,2.20
2023-10-29T17:43:28.000Z,1.90
2023-10-29T17:45:39.098Z,2.08
2023-10-29T17:47:44.168Z,2.30
2023-10-29T17:49:49.064Z,3.20
2023-10-29T17:51:51.493Z,3.00
2023-10-29T17:53:58.991Z,2.50
2023-10-29T17:56:04.785Z,2.47
2023-10-29T17:58:10.178Z,2.40
2023-10-29T18:00:17.248Z,2.22
2023-10-29T18:02:22.191Z,2.05
2023-10-29T18:04:27.271Z,2.47
2023-10-29T18:06:32.200Z,2.40
2023-10-29T18:08:37.100Z,2.17
2023-10-29T18:10:44.550Z,2.42
2023-10-29T18:12:49.373Z,2.58
2023-10-29T18:14:54.550Z,2.72
2023-10-29T18:17:00.213Z,2.58
2023-10-29T18:19:06.012Z,3.05
2023-10-29T18:21:10.954Z,2.70
2023-10-29T18:23:16.394Z,3.10
2023-10-29T18:25:21.348Z,3.30
2023-10-29T18:27:29.043Z,4.28
2023-10-29T18:29:33.993Z,3.70
2023-10-29T18:31:38.793Z,3.47
2023-10-29T18:33:43.728Z,3.72
2023-10-29T18:35:48.916Z,3.10
2023-10-29T18:37:55.318Z,3.45
2023-10-29T18:40:00.215Z,3.58
2023-10-29T18:42:05.277Z,3.25
2023-10-29T18:44:12.787Z,2.83
2023-10-29T18:46:16.257Z,2.97
2023-10-29T18:48:21.187Z,2.30
2023-10-29T18:50:26.263Z,2.92
2023-10-29T18:52:31.337Z,2.97
2023-10-29T18:54:37.249Z,2.95
2023-10-29T18:56:42.222Z,3.33
2023-10-29T18:58:47.079Z,3.50
2023-10-29T19:00:53.884Z,4.00
2023-10-29T19:02:59.029Z,4.38
2023-10-29T19:05:01.655Z,3.83
2023-10-29T19:07:06.734Z,3.60
